Dwight, KS (66849)

1:23 AM CST on February 11, 2016 (GMT -0600)
Marshall Army Air Field | | Change Station
CLOSE
Current Station
Airport
Location: Ft Riley,
Elevation: 1063 ft
Nearby Weather Stations

Elev 1063 ft 39.06 °N, 96.76 °W | Updated 25 minutes ago

Partly Cloudy
Partly Cloudy
34 °F
Feels Like 27 °F
N
9
Wind Variable Wind from NNE

Today
High -- | Low -- °F
--% Chance of Precip.
Yesterday
High -- | Low -- °F
Precip. -- in
Pressure 30.09 in
Visibility 10.0 miles
Clouds Clear
Windchill 27 °F
Dew Point 27 °F
Humidity 76%
Rainfall 0.00 in
Snow Depth Not available.
7:22 AM 5:58 PM
Waxing Crescent, 10% visible
METAR KFRI 110658Z AUTO 03008KT 10SM CLR 01/M03 A3008 RMK AO2 SLP189 T00131026
Pressure 30.09 in
Visibility 10.0 miles
Clouds Clear
Windchill 27 °F
Dew Point 27 °F
Humidity 76%
Rainfall 0.00 in
Snow Depth Not available.
7:22 AM 5:58 PM
Waxing Crescent, 10% visible
METAR KFRI 110658Z AUTO 03008KT 10SM CLR 01/M03 A3008 RMK AO2 SLP189 T00131026

10-Day Weather Forecast

Almanac

Astronomy

Feb. 11, 2016 Rise Set
Actual Time
Civil Twilight
Nautical Twilight
Astronomical Twilight
Moon
Length of Visible Light
Length of Day
Tomorrow will be .
, % of the Moon is Illuminated

Today's Extremes

State Highs State Lows

Community

WunderPhotos

Upload Photos

1,892,030 photos uploaded!

WunderBlog® & News

Nearby

Air Quality

  Air Quality AQ Index Pollutant
Not available.

Snow Depth

Station Depth Elevation

Earthquake Activity

City Distance Mag. Time & Date
Minimum magnitude displayed is 2.5.

Coastal Water Temperatures

Place Temperature

Stations

Nearby Weather Stations

Station Location Temp. Windchill Dew Point Humidity Wind Precip. Elev Updated Type
                   

Watches & Warnings

There are currently no watches in effect.